createdAt,value
2018-10-03T00:01:31.656Z,1.50
2018-10-03T00:04:13.024Z,1.57
2018-10-03T00:06:53.584Z,1.60
2018-10-03T00:09:35.035Z,1.30
2018-10-03T00:12:16.412Z,1.30
2018-10-03T00:14:57.751Z,1.83
2018-10-03T00:17:39.140Z,1.53
2018-10-03T00:20:20.588Z,1.50
2018-10-03T00:23:01.988Z,1.70
2018-10-03T00:25:42.512Z,1.60
2018-10-03T00:28:23.884Z,1.60
2018-10-03T00:31:05.343Z,1.80
2018-10-03T00:33:46.715Z,1.70
2018-10-03T00:36:27.223Z,1.53
2018-10-03T00:39:07.664Z,1.93
2018-10-03T00:41:48.139Z,2.00
2018-10-03T00:44:29.467Z,2.30
2018-10-03T00:47:09.872Z,1.87
2018-10-03T00:49:51.212Z,1.47
2018-10-03T00:52:31.847Z,2.10
2018-10-03T00:55:13.196Z,1.53
2018-10-03T00:57:53.654Z,1.70
2018-10-03T01:00:34.128Z,1.60
2018-10-03T01:03:14.588Z,1.33
2018-10-03T01:05:55.089Z,1.53
2018-10-03T01:08:36.483Z,1.53
2018-10-03T01:11:17.867Z,1.40
2018-10-03T01:13:58.368Z,1.13
2018-10-03T01:16:38.907Z,2.27
2018-10-03T01:19:19.407Z,1.53
2018-10-03T01:22:00.785Z,1.37
2018-10-03T01:24:42.216Z,1.70
2018-10-03T01:27:23.610Z,1.33
2018-10-03T01:30:04.963Z,1.50
2018-10-03T01:32:46.431Z,2.50
2018-10-03T01:35:26.899Z,3.10
2018-10-03T01:38:07.519Z,1.83
2018-10-03T01:40:48.004Z,2.03
2018-10-03T01:43:28.551Z,1.83
2018-10-03T01:46:09.059Z,1.53
2018-10-03T01:48:50.451Z,2.00
2018-10-03T01:51:31.413Z,2.73
2018-10-03T01:54:13.144Z,1.70
2018-10-03T01:56:53.975Z,1.77
2018-10-03T01:59:34.501Z,1.67
2018-10-03T02:02:15.063Z,1.90
2018-10-03T02:04:55.576Z,2.10
2018-10-03T02:07:36.944Z,1.80
2018-10-03T02:10:17.432Z,1.80
2018-10-03T02:12:58.816Z,2.20
2018-10-03T02:15:39.267Z,1.40
2018-10-03T02:18:19.688Z,1.40
2018-10-03T02:21:00.348Z,1.67
2018-10-03T02:23:41.475Z,1.87
2018-10-03T02:26:22.039Z,1.23
2018-10-03T02:29:03.503Z,1.50
2018-10-03T02:31:43.996Z,2.40
2018-10-03T02:34:25.952Z,2.17
2018-10-03T02:37:06.907Z,2.80
2018-10-03T02:39:47.436Z,1.80
2018-10-03T02:42:28.827Z,1.57
2018-10-03T02:45:10.214Z,1.90
2018-10-03T02:47:51.992Z,1.80
2018-10-03T02:50:33.506Z,1.60
2018-10-03T02:53:14.907Z,1.87
2018-10-03T02:55:55.327Z,1.77
2018-10-03T02:58:36.993Z,1.80
2018-10-03T03:01:18.163Z,2.27
2018-10-03T03:03:58.648Z,1.90
2018-10-03T03:06:39.152Z,1.40
2018-10-03T03:09:21.072Z,1.80
2018-10-03T03:12:02.193Z,1.47
2018-10-03T03:14:42.729Z,1.13
2018-10-03T03:17:24.076Z,1.33
2018-10-03T03:20:05.489Z,1.10
2018-10-03T03:22:46.927Z,1.37
2018-10-03T03:25:28.284Z,1.43
2018-10-03T03:28:08.938Z,1.73
2018-10-03T03:30:50.623Z,1.60
2018-10-03T03:33:31.948Z,1.57
2018-10-03T03:36:12.967Z,2.00
2018-10-03T03:38:53.843Z,2.17
2018-10-03T03:41:34.351Z,2.50
2018-10-03T03:44:14.824Z,1.40
2018-10-03T03:46:56.193Z,1.77
2018-10-03T03:49:36.757Z,1.77
2018-10-03T03:52:17.321Z,1.33
2018-10-03T03:54:57.851Z,1.33
2018-10-03T03:57:38.303Z,1.43
2018-10-03T04:00:18.971Z,1.47
2018-10-03T04:03:00.498Z,1.33
2018-10-03T04:05:41.815Z,1.60
2018-10-03T04:08:22.280Z,1.87
2018-10-03T04:11:02.784Z,1.43
2018-10-03T04:13:44.171Z,1.17
2018-10-03T04:16:25.564Z,2.07
2018-10-03T04:19:06.915Z,1.37
2018-10-03T04:21:48.006Z,1.53
2018-10-03T04:24:28.848Z,1.50
2018-10-03T04:27:10.143Z,1.37
2018-10-03T04:29:51.536Z,1.50
2018-10-03T04:32:32.139Z,1.27
2018-10-03T04:35:13.567Z,1.23
2018-10-03T04:37:54.987Z,1.00
2018-10-03T04:40:36.405Z,1.30
2018-10-03T04:43:17.840Z,1.87
2018-10-03T04:45:58.563Z,1.00
2018-10-03T04:48:40.028Z,1.30
2018-10-03T04:51:20.609Z,1.10
2018-10-03T04:54:01.903Z,1.53
2018-10-03T04:56:43.303Z,1.67
2018-10-03T04:59:24.744Z,1.57
2018-10-03T05:02:06.252Z,1.20
2018-10-03T05:04:47.633Z,1.10
2018-10-03T05:07:28.252Z,1.20
2018-10-03T05:10:09.884Z,1.00
2018-10-03T05:12:51.156Z,1.10
2018-10-03T05:15:32.636Z,1.70
2018-10-03T05:18:14.056Z,1.17
2018-10-03T05:20:55.460Z,1.70
2018-10-03T05:23:35.903Z,1.60
2018-10-03T05:26:16.567Z,1.67
2018-10-03T05:28:58.056Z,1.33
2018-10-03T05:31:39.480Z,1.33
2018-10-03T05:34:20.836Z,1.60
2018-10-03T05:37:01.404Z,2.37
2018-10-03T05:39:42.750Z,1.83
2018-10-03T05:42:23.236Z,1.50
2018-10-03T05:45:03.747Z,2.07
2018-10-03T05:47:44.279Z,2.00
2018-10-03T05:50:25.746Z,1.97
2018-10-03T05:53:06.256Z,1.70
2018-10-03T05:55:47.953Z,1.70
2018-10-03T05:58:29.239Z,2.00
2018-10-03T06:01:10.684Z,2.23
2018-10-03T06:03:52.020Z,1.77
2018-10-03T06:06:32.602Z,3.00
2018-10-03T06:09:13.656Z,1.37
2018-10-03T06:11:54.537Z,1.30
2018-10-03T06:14:35.072Z,1.27
2018-10-03T06:17:16.391Z,1.70
2018-10-03T06:19:56.855Z,1.40
2018-10-03T06:22:38.020Z,1.50
2018-10-03T06:25:19.142Z,2.20
2018-10-03T06:28:00.559Z,1.73
2018-10-03T06:30:41.016Z,2.57
2018-10-03T06:33:22.378Z,1.63
2018-10-03T06:36:02.920Z,1.60
2018-10-03T06:38:43.405Z,2.10
2018-10-03T06:41:23.905Z,1.50
2018-10-03T06:44:04.420Z,1.30
2018-10-03T06:46:45.859Z,2.00
2018-10-03T06:49:26.448Z,1.70
2018-10-03T06:52:06.968Z,1.90
2018-10-03T06:54:47.468Z,3.07
2018-10-03T06:57:27.905Z,1.90
2018-10-03T07:00:08.501Z,2.23
2018-10-03T07:02:49.867Z,1.93
2018-10-03T07:05:31.300Z,1.47
2018-10-03T07:08:12.727Z,2.80
2018-10-03T07:10:54.087Z,3.20
2018-10-03T07:13:34.612Z,3.00
2018-10-03T07:16:16.055Z,3.40
2018-10-03T07:18:56.532Z,3.10
2018-10-03T07:21:36.983Z,3.00
2018-10-03T07:24:17.568Z,2.00
2018-10-03T07:26:59.012Z,2.23
2018-10-03T07:29:39.552Z,4.60
2018-10-03T07:32:20.967Z,8.17
2018-10-03T07:35:02.540Z,2.83
2018-10-03T07:37:43.832Z,3.43
2018-10-03T07:40:24.395Z,3.00
2018-10-03T07:43:05.773Z,3.07
2018-10-03T07:45:47.172Z,2.50
2018-10-03T07:48:27.782Z,4.90
2018-10-03T07:51:08.259Z,7.37
2018-10-03T07:53:48.714Z,5.10
2018-10-03T07:56:29.216Z,3.60
2018-10-03T07:59:09.837Z,5.47
2018-10-03T08:01:51.243Z,6.50
2018-10-03T08:04:31.752Z,4.43
2018-10-03T08:07:12.934Z,8.47
2018-10-03T08:09:53.822Z,4.70
2018-10-03T08:12:34.307Z,3.70
2018-10-03T08:15:14.864Z,3.33
2018-10-03T08:17:55.319Z,3.43
2018-10-03T08:20:36.763Z,2.50
2018-10-03T08:23:18.155Z,3.30
2018-10-03T08:25:58.643Z,3.10
2018-10-03T08:28:39.377Z,3.03
2018-10-03T08:31:20.777Z,2.10
2018-10-03T08:34:01.943Z,2.17
2018-10-03T08:36:43.032Z,3.13
2018-10-03T08:39:24.507Z,2.10
2018-10-03T08:42:05.820Z,1.97
2018-10-03T08:44:46.440Z,5.10
2018-10-03T08:47:27.840Z,4.67
2018-10-03T08:50:08.308Z,3.77
2018-10-03T08:52:48.779Z,2.60
2018-10-03T08:55:29.393Z,5.23
2018-10-03T08:58:09.924Z,4.97
2018-10-03T09:00:51.691Z,4.77
2018-10-03T09:03:32.984Z,3.97
2018-10-03T09:06:14.427Z,2.30
2018-10-03T09:08:56.069Z,4.60
2018-10-03T09:11:37.406Z,2.70
2018-10-03T09:14:17.968Z,1.93
2018-10-03T09:16:59.424Z,2.10
2018-10-03T09:19:39.957Z,1.37
2018-10-03T09:22:20.491Z,1.53
2018-10-03T09:25:01.056Z,1.20
2018-10-03T09:27:41.598Z,1.53
2018-10-03T09:30:22.109Z,2.00
2018-10-03T09:33:02.600Z,2.10
2018-10-03T09:35:43.072Z,1.30
2018-10-03T09:38:23.602Z,1.23
2018-10-03T09:41:04.056Z,2.00
2018-10-03T09:43:45.528Z,1.53
2018-10-03T09:46:27.511Z,1.60
2018-10-03T09:49:08.353Z,1.33
2018-10-03T09:51:49.628Z,1.63
2018-10-03T09:54:30.208Z,1.33
2018-10-03T09:57:11.605Z,1.67
2018-10-03T09:59:52.952Z,2.30
2018-10-03T10:02:34.295Z,1.67
2018-10-03T10:05:14.779Z,2.30
2018-10-03T10:07:55.235Z,2.23
2018-10-03T10:10:35.708Z,1.63
2018-10-03T10:13:17.135Z,1.90
2018-10-03T10:15:58.509Z,1.87
2018-10-03T10:18:40.492Z,1.67
2018-10-03T10:21:21.261Z,1.70
2018-10-03T10:24:01.915Z,1.27
2018-10-03T10:26:43.975Z,1.40
2018-10-03T10:29:24.748Z,1.53
2018-10-03T10:32:05.275Z,1.90
2018-10-03T10:34:45.991Z,2.10
2018-10-03T10:37:26.517Z,2.67
2018-10-03T10:40:07.044Z,2.00
2018-10-03T10:42:47.817Z,2.07
2018-10-03T10:45:28.987Z,2.43
2018-10-03T10:48:09.451Z,1.93
2018-10-03T10:50:50.059Z,2.80
2018-10-03T10:53:30.593Z,1.90
2018-10-03T10:56:11.103Z,2.10
2018-10-03T10:58:52.620Z,2.87
2018-10-03T11:01:34.487Z,2.33
2018-10-03T11:04:15.571Z,2.40
2018-10-03T11:06:56.024Z,2.37
2018-10-03T11:09:36.858Z,2.33
2018-10-03T11:12:18.057Z,2.47
2018-10-03T11:14:58.622Z,2.70
2018-10-03T11:17:40.108Z,2.77
2018-10-03T11:20:21.556Z,2.93
2018-10-03T11:23:02.955Z,2.60
2018-10-03T11:25:43.626Z,3.50
2018-10-03T11:28:24.079Z,2.43
2018-10-03T11:31:04.656Z,2.90
2018-10-03T11:33:46.048Z,3.20
2018-10-03T11:36:26.639Z,3.60
2018-10-03T11:39:07.166Z,2.27
2018-10-03T11:41:48.528Z,3.27
2018-10-03T11:44:29.947Z,2.47
2018-10-03T11:47:11.262Z,2.57
2018-10-03T11:49:51.779Z,2.23
2018-10-03T11:52:33.147Z,2.93
2018-10-03T11:55:14.547Z,2.90
2018-10-03T11:57:55.039Z,2.97
2018-10-03T12:00:36.548Z,2.13
2018-10-03T12:03:17.927Z,2.47
2018-10-03T12:05:59.258Z,3.57
2018-10-03T12:08:39.777Z,3.57
2018-10-03T12:11:21.355Z,3.20
2018-10-03T12:14:03.269Z,3.20
2018-10-03T12:16:44.298Z,2.60
2018-10-03T12:19:24.788Z,2.77
2018-10-03T12:22:06.811Z,2.30
2018-10-03T12:24:47.721Z,2.60
2018-10-03T12:27:28.323Z,3.43
2018-10-03T12:30:09.607Z,2.43
2018-10-03T12:32:51.515Z,2.90
2018-10-03T12:35:33.320Z,2.80
2018-10-03T12:38:13.923Z,2.70
2018-10-03T12:40:54.395Z,3.23
2018-10-03T12:43:35.999Z,2.37
2018-10-03T12:46:17.272Z,2.53
2018-10-03T12:48:57.758Z,2.80
2018-10-03T12:51:38.252Z,3.13
2018-10-03T12:54:18.804Z,2.43
2018-10-03T12:57:00.143Z,2.10
2018-10-03T12:59:40.663Z,2.67
2018-10-03T13:02:22.212Z,2.10
2018-10-03T13:05:04.387Z,2.33
2018-10-03T13:07:44.987Z,2.00
2018-10-03T13:10:25.579Z,2.43
2018-10-03T13:13:06.044Z,1.77
2018-10-03T13:15:47.628Z,1.87
2018-10-03T13:18:29.173Z,2.00
2018-10-03T13:21:10.604Z,2.07
2018-10-03T13:23:52.003Z,1.70
2018-10-03T13:26:33.780Z,2.50
2018-10-03T13:29:14.851Z,1.77
2018-10-03T13:31:55.820Z,1.53
2018-10-03T13:34:36.935Z,1.73
2018-10-03T13:37:17.391Z,2.10
2018-10-03T13:39:58.785Z,2.67
2018-10-03T13:42:39.268Z,2.53
2018-10-03T13:45:19.799Z,1.60
2018-10-03T13:48:01.132Z,1.63
2018-10-03T13:50:42.372Z,1.87
2018-10-03T13:53:23.219Z,2.10
2018-10-03T13:56:04.631Z,1.67
2018-10-03T13:58:45.107Z,1.43
2018-10-03T14:01:25.584Z,1.40
2018-10-03T14:04:06.065Z,1.83
2018-10-03T14:06:46.512Z,1.37
2018-10-03T14:09:26.969Z,1.43
2018-10-03T14:12:07.459Z,1.90
2018-10-03T14:14:48.017Z,2.00
2018-10-03T14:17:29.389Z,2.03
2018-10-03T14:20:10.227Z,1.43
2018-10-03T14:22:51.650Z,1.43
2018-10-03T14:25:33.023Z,1.50
2018-10-03T14:28:13.523Z,1.40
2018-10-03T14:30:54.908Z,1.97
2018-10-03T14:33:35.400Z,2.10
2018-10-03T14:36:16.050Z,2.40
2018-10-03T14:38:56.539Z,2.03
2018-10-03T14:41:37.055Z,2.27
2018-10-03T14:44:17.516Z,2.33
2018-10-03T14:46:58.059Z,1.60
2018-10-03T14:49:39.617Z,1.80
2018-10-03T14:52:20.991Z,1.43
2018-10-03T14:55:02.212Z,1.53
2018-10-03T14:57:42.747Z,1.57
2018-10-03T15:00:24.111Z,1.60
2018-10-03T15:03:05.500Z,1.50
2018-10-03T15:05:45.963Z,1.60
2018-10-03T15:08:26.440Z,1.10
2018-10-03T15:11:07.823Z,1.20
2018-10-03T15:13:48.287Z,1.63
2018-10-03T15:16:28.788Z,1.40
2018-10-03T15:19:09.775Z,1.53
2018-10-03T15:21:50.771Z,1.70
2018-10-03T15:24:31.335Z,1.47
2018-10-03T15:27:12.797Z,1.93
2018-10-03T15:29:53.434Z,1.63
2018-10-03T15:32:34.811Z,1.47
2018-10-03T15:35:16.266Z,1.53
2018-10-03T15:37:56.749Z,1.60
2018-10-03T15:40:38.384Z,1.77
2018-10-03T15:43:19.577Z,2.07
2018-10-03T15:46:00.187Z,1.90
2018-10-03T15:48:41.120Z,1.93
2018-10-03T15:51:22.208Z,1.30
2018-10-03T15:54:02.683Z,1.50
2018-10-03T15:56:44.142Z,3.00
2018-10-03T15:59:25.481Z,1.90
2018-10-03T16:02:07.088Z,1.50
2018-10-03T16:04:48.501Z,1.80
2018-10-03T16:07:29.051Z,2.07
2018-10-03T16:10:09.512Z,2.80
2018-10-03T16:12:50.019Z,1.70
2018-10-03T16:15:31.024Z,2.00
2018-10-03T16:18:11.816Z,1.10
2018-10-03T16:20:52.335Z,1.77
2018-10-03T16:23:33.700Z,1.80
2018-10-03T16:26:14.351Z,1.10
2018-10-03T16:28:54.871Z,1.50
2018-10-03T16:31:36.307Z,1.60
2018-10-03T16:34:16.884Z,2.50
2018-10-03T16:36:57.441Z,1.67
2018-10-03T16:39:38.036Z,1.50
2018-10-03T16:42:19.412Z,1.93
2018-10-03T16:45:00.784Z,2.33
2018-10-03T16:47:42.219Z,1.93
2018-10-03T16:50:23.644Z,2.93
2018-10-03T16:53:05.064Z,2.10
2018-10-03T16:55:46.423Z,2.60
2018-10-03T16:58:26.967Z,2.10
2018-10-03T17:01:07.462Z,2.40
2018-10-03T17:03:48.060Z,1.80
2018-10-03T17:06:28.587Z,3.73
2018-10-03T17:09:09.175Z,2.50
2018-10-03T17:11:51.177Z,2.17
2018-10-03T17:14:38.865Z,2.00
2018-10-03T17:17:20.247Z,1.40
2018-10-03T17:20:01.187Z,1.37
2018-10-03T17:22:42.371Z,1.40
2018-10-03T17:25:23.740Z,2.13
2018-10-03T17:28:05.144Z,2.30
2018-10-03T17:30:46.576Z,3.20
2018-10-03T17:33:28.088Z,4.77
2018-10-03T17:36:09.503Z,1.97
2018-10-03T17:38:50.998Z,2.20
2018-10-03T17:41:32.518Z,1.43
2018-10-03T17:44:14.918Z,2.47
2018-10-03T17:46:56.666Z,2.70
2018-10-03T17:49:37.776Z,4.90
2018-10-03T17:52:18.288Z,6.30
2018-10-03T17:54:58.755Z,3.07
2018-10-03T17:57:39.292Z,2.57
2018-10-03T18:00:20.711Z,2.43
2018-10-03T18:03:02.155Z,2.73
2018-10-03T18:05:42.623Z,3.87
2018-10-03T18:08:24.041Z,2.80
2018-10-03T18:11:04.488Z,2.87
2018-10-03T18:13:45.201Z,2.27
2018-10-03T18:16:26.320Z,3.13
2018-10-03T18:19:06.896Z,2.47
2018-10-03T18:21:48.270Z,2.30
2018-10-03T18:24:28.755Z,2.27
2018-10-03T18:27:09.257Z,2.80
2018-10-03T18:29:49.753Z,2.77
2018-10-03T18:32:30.735Z,1.80
2018-10-03T18:35:11.599Z,2.47
2018-10-03T18:37:52.392Z,2.30
2018-10-03T18:40:33.640Z,2.93
2018-10-03T18:43:15.087Z,1.93
2018-10-03T18:45:55.616Z,1.73
2018-10-03T18:48:36.988Z,2.43
2018-10-03T18:51:18.896Z,2.50
2018-10-03T18:53:59.884Z,2.43
2018-10-03T18:56:40.477Z,2.70
2018-10-03T18:59:21.887Z,2.30
2018-10-03T19:02:03.300Z,2.50
2018-10-03T19:04:43.813Z,2.63
2018-10-03T19:07:25.197Z,2.10
2018-10-03T19:10:05.792Z,1.37
2018-10-03T19:12:47.064Z,1.83
2018-10-03T19:15:28.479Z,1.93
2018-10-03T19:18:09.312Z,2.60
2018-10-03T19:20:50.443Z,1.83
2018-10-03T19:23:31.879Z,1.90
2018-10-03T19:26:13.391Z,1.30
2018-10-03T19:28:54.808Z,1.80
2018-10-03T19:31:35.264Z,2.30
2018-10-03T19:34:16.661Z,2.13
2018-10-03T19:36:57.131Z,2.20
2018-10-03T19:39:37.610Z,3.33
2018-10-03T19:42:18.989Z,2.33
2018-10-03T19:45:00.428Z,2.10
2018-10-03T19:47:40.923Z,2.10
2018-10-03T19:50:21.444Z,2.20
2018-10-03T19:53:02.055Z,2.10
2018-10-03T19:55:43.435Z,2.37
2018-10-03T19:58:25.143Z,2.27
2018-10-03T20:01:06.283Z,2.00
2018-10-03T20:03:46.813Z,2.30
2018-10-03T20:06:27.368Z,2.10
2018-10-03T20:09:08.468Z,1.63
2018-10-03T20:11:49.483Z,1.73
2018-10-03T20:14:29.931Z,2.03
2018-10-03T20:17:11.359Z,2.00
2018-10-03T20:19:51.803Z,1.90
2018-10-03T20:22:32.276Z,1.70
2018-10-03T20:25:12.771Z,1.90
2018-10-03T20:27:53.262Z,2.70
2018-10-03T20:30:34.618Z,2.00
2018-10-03T20:33:15.100Z,2.33
2018-10-03T20:35:55.707Z,2.37
2018-10-03T20:38:37.199Z,1.50
2018-10-03T20:41:18.123Z,1.93
2018-10-03T20:43:59.180Z,2.20
2018-10-03T20:46:40.671Z,1.53
2018-10-03T20:49:21.987Z,2.37
2018-10-03T20:52:02.572Z,1.87
2018-10-03T20:54:43.040Z,1.50
2018-10-03T20:57:23.683Z,2.10
2018-10-03T21:00:04.304Z,2.13
2018-10-03T21:02:46.127Z,1.80
2018-10-03T21:05:27.080Z,2.00
2018-10-03T21:08:08.426Z,1.77
2018-10-03T21:10:48.860Z,2.10
2018-10-03T21:13:30.439Z,1.60
2018-10-03T21:16:10.923Z,2.87
2018-10-03T21:18:52.292Z,2.13
2018-10-03T21:21:32.763Z,1.27
2018-10-03T21:24:14.176Z,1.87
2018-10-03T21:26:55.630Z,1.83
2018-10-03T21:29:36.252Z,1.70
2018-10-03T21:32:17.636Z,1.80
2018-10-03T21:34:59.087Z,1.93
2018-10-03T21:37:40.508Z,2.00
2018-10-03T21:40:21.983Z,1.80
2018-10-03T21:43:02.519Z,1.60
2018-10-03T21:45:43.785Z,1.37
2018-10-03T21:48:24.297Z,2.00
2018-10-03T21:51:05.662Z,2.00
2018-10-03T21:53:46.258Z,2.10
2018-10-03T21:56:26.819Z,1.60
2018-10-03T21:59:07.359Z,1.80
2018-10-03T22:01:48.686Z,2.03
2018-10-03T22:04:30.201Z,1.70
2018-10-03T22:07:11.463Z,2.37
2018-10-03T22:09:51.927Z,1.80
2018-10-03T22:12:32.540Z,2.37
2018-10-03T22:15:13.987Z,2.20
2018-10-03T22:17:54.463Z,1.73
2018-10-03T22:20:35.091Z,2.40
2018-10-03T22:23:15.639Z,2.37
2018-10-03T22:25:57.039Z,2.67
2018-10-03T22:28:38.527Z,1.83
2018-10-03T22:31:19.939Z,1.77
2018-10-03T22:34:00.492Z,2.27
2018-10-03T22:36:41.952Z,2.57
2018-10-03T22:39:23.327Z,2.93
2018-10-03T22:42:04.723Z,1.77
2018-10-03T22:44:45.311Z,1.90
2018-10-03T22:47:26.057Z,2.63
2018-10-03T22:50:07.456Z,3.00
2018-10-03T22:52:47.944Z,2.10
2018-10-03T22:55:28.559Z,2.73
2018-10-03T22:58:09.919Z,1.73
2018-10-03T23:00:50.472Z,2.87
2018-10-03T23:03:30.979Z,2.30
2018-10-03T23:06:12.572Z,2.37
2018-10-03T23:08:53.971Z,1.63
2018-10-03T23:11:35.620Z,2.77
2018-10-03T23:14:16.704Z,2.70
2018-10-03T23:16:57.280Z,2.17
2018-10-03T23:19:38.668Z,2.33
2018-10-03T23:22:19.143Z,3.53
2018-10-03T23:25:00.590Z,2.67
2018-10-03T23:27:41.267Z,2.00
2018-10-03T23:30:21.852Z,1.90
2018-10-03T23:33:03.347Z,2.90
2018-10-03T23:35:44.760Z,2.17
2018-10-03T23:38:25.319Z,2.77
2018-10-03T23:41:05.844Z,2.00
2018-10-03T23:43:47.275Z,2.23
2018-10-03T23:46:27.794Z,2.30
2018-10-03T23:49:09.138Z,3.20
2018-10-03T23:51:49.624Z,2.37
2018-10-03T23:54:30.256Z,2.40
2018-10-03T23:57:10.732Z,2.20
2018-10-03T23:59:51.339Z,2.10
